| time (UTC) | temp C | wind direction | speed KPH | gust KPH | rain 1hr cm | rain 24hr cm | rain mn cm | humidity % | barometer mb |
| 20260906124557 | 23 | 327 | 1.6 | 3.2 | 0.00 | 0.00 | 0.00 | 89 | 1014.2 |
| 20260906123058 | 22 | 0 | 0.0 | 0.0 | 0.00 | 0.00 | 0.00 | 90 | 1014.2 |
| 20260906121607 | 22 | 0 | 0.0 | 0.0 | 0.00 | 0.00 | 0.00 | 91 | 1014.1 |
| 20260906114555 | 22 | 0 | 0.0 | 0.0 | 0.00 | 0.00 | 0.00 | 91 | 1014.1 |
| 20260906113105 | 22 | 0 | 0.0 | 0.0 | 0.00 | 0.00 | 0.00 | 91 | 1014.0 |
| 20260906111551 | 22 | 0 | 0.0 | 0.0 | 0.00 | 0.00 | 0.00 | 91 | 1013.8 |
| 20260906110104 | 21 | 0 | 0.0 | 3.2 | 0.00 | 0.00 | 0.00 | 91 | 1013.6 |
| 20260906104557 | 22 | 360 | 1.6 | 3.2 | 0.00 | 0.00 | 0.00 | 91 | 1013.5 |
| 20260906103103 | 22 | 0 | 0.0 | 0.0 | 0.00 | 0.00 | 0.00 | 90 | 1013.1 |
| 20260906101601 | 22 | 360 | 1.6 | 3.2 | 0.00 | 0.00 | 0.00 | 91 | 1013.3 |
| 20260906100105 | 22 | 360 | 0.0 | 3.2 | 0.00 | 0.00 | 0.00 | 91 | 1013.3 |
| 20260906094554 | 22 | 0 | 0.0 | 0.0 | 0.00 | 0.00 | 0.00 | 90 | 1013.2 |
| 20260906093105 | 22 | 0 | 0.0 | 0.0 | 0.00 | 0.00 | 0.00 | 90 | 1013.1 |
| 20260906091601 | 21 | 0 | 0.0 | 0.0 | 0.00 | 0.00 | 0.00 | 91 | 1013.1 |
| 20260906090114 | 21 | 0 | 0.0 | 0.0 | 0.00 | 0.00 | 0.00 | 91 | 1013.1 |
| 20260906084612 | 21 | 0 | 0.0 | 0.0 | 0.00 | 0.00 | 0.00 | 91 | 1013.1 |
| 20260906083109 | 21 | 0 | 0.0 | 0.0 | 0.00 | 0.00 | 0.00 | 90 | 1013.1 |
| 20260906081600 | 22 | 0 | 0.0 | 0.0 | 0.00 | 0.00 | 0.00 | 90 | 1012.9 |
| 20260906080122 | 22 | 0 | 0.0 | 0.0 | 0.00 | 0.00 | 0.00 | 89 | 1012.9 |
| 20260906074607 | 22 | 0 | 0.0 | 0.0 | 0.00 | 0.00 | 0.00 | 89 | 1012.6 |
| 20260906073105 | 22 | 0 | 0.0 | 0.0 | 0.00 | 0.00 | 0.00 | 88 | 1012.7 |
| 20260906071600 | 22 | 0 | 0.0 | 0.0 | 0.00 | 0.00 | 0.00 | 89 | 1013.0 |
| 20260906070103 | 22 | 0 | 0.0 | 1.6 | 0.00 | 0.00 | 0.00 | 87 | 1013.1 |
| 20260906064551 | 22 | 0 | 0.0 | 1.6 | 0.00 | 0.00 | 0.00 | 87 | 1013.0 |
| 20260906063102 | 22 | 0 | 0.0 | 1.6 | 0.00 | 0.00 | 0.00 | 86 | 1013.0 |
| 20260906061605 | 23 | 0 | 0.0 | 3.2 | 0.00 | 0.00 | 0.00 | 86 | 1013.1 |
| 20260906054552 | 23 | 360 | 0.0 | 3.2 | 0.00 | 0.00 | 0.00 | 83 | 1013.5 |
| 20260906053101 | 23 | 0 | 1.6 | 3.2 | 0.00 | 0.00 | 0.00 | 82 | 1013.6 |
| 20260906051606 | 23 | 0 | 0.0 | 4.8 | 0.00 | 0.00 | 0.00 | 81 | 1013.7 |
| 20260906050109 | 23 | 360 | 1.6 | 4.8 | 0.00 | 0.00 | 0.00 | 80 | 1014.0 |
| 20260906044602 | 24 | 0 | 0.0 | 3.2 | 0.00 | 0.00 | 0.00 | 78 | 1014.1 |
| 20260906043104 | 24 | 0 | 0.0 | 6.4 | 0.00 | 0.00 | 0.00 | 77 | 1013.9 |
| 20260906041603 | 24 | 182 | 0.0 | 4.8 | 0.00 | 0.00 | 0.00 | 76 | 1013.6 |
| 20260906040058 | 25 | 0 | 0.0 | 3.2 | 0.00 | 0.00 | 0.00 | 75 | 1013.7 |
| 20260906034608 | 25 | 50 | 0.0 | 4.8 | 0.00 | 0.00 | 0.00 | 73 | 1013.4 |
| 20260906033102 | 25 | 162 | 3.2 | 9.7 | 0.00 | 0.00 | 0.00 | 75 | 1013.3 |
| 20260906031600 | 25 | 323 | 3.2 | 6.4 | 0.00 | 0.00 | 0.00 | 75 | 1013.3 |
| 20260906030104 | 25 | 334 | 0.0 | 4.8 | 0.00 | 0.00 | 0.00 | 73 | 1013.5 |
| 20260906024604 | 26 | 323 | 3.2 | 8.0 | 0.00 | 0.00 | 0.00 | 71 | 1013.7 |
| 20260906023059 | 26 | 280 | 1.6 | 8.0 | 0.00 | 0.00 | 0.00 | 71 | 1013.3 |
| 20260906021603 | 26 | 244 | 0.0 | 6.4 | 0.00 | 0.00 | 0.00 | 72 | 1013.1 |
| 20260906020106 | 27 | 32 | 6.4 | 22.5 | 0.00 | 0.00 | 0.00 | 65 | 1013.3 |
| 20260906014601 | 27 | 352 | 8.0 | 20.9 | 0.00 | 0.00 | 0.00 | 63 | 1013.6 |
| 20260906013107 | 26 | 92 | 4.8 | 22.5 | 0.00 | 0.00 | 0.00 | 68 | 1014.0 |
| 20260906011603 | 27 | 82 | 9.7 | 22.5 | 0.00 | 0.00 | 0.00 | 69 | 1014.5 |
| 20260906010100 | 27 | 318 | 3.2 | 8.0 | 0.00 | 0.00 | 0.00 | 81 | 1014.2 |
| 20260906004559 | 27 | 324 | 6.4 | 11.3 | 0.00 | 0.00 | 0.00 | 81 | 1013.6 |
| 20260906003101 | 27 | 0 | 0.0 | 1.6 | 0.00 | 0.00 | 0.00 | 81 | 1013.2 |
| 20260906001559 | 27 | 0 | 0.0 | 0.0 | 0.00 | 0.00 | 0.00 | 82 | 1013.1 |
| 20260906000108 | 27 | 329 | 0.0 | 4.8 | 0.00 | 0.00 | 0.00 | 82 | 1012.8 |
| 20260905234618 | 27 | 0 | 0.0 | 6.4 | 0.00 | 0.00 | 0.00 | 84 | 1012.2 |
| 20260905233100 | 27 | 0 | 0.0 | 3.2 | 0.00 | 0.00 | 0.00 | 83 | 1012.3 |
| 20260905231607 | 27 | 0 | 0.0 | 3.2 | 0.00 | 0.00 | 0.00 | 82 | 1012.8 |
| 20260905230105 | 27 | 0 | 0.0 | 4.8 | 0.00 | 0.00 | 0.00 | 80 | 1012.7 |
| 20260905224552 | 27 | 180 | 0.0 | 4.8 | 0.00 | 0.00 | 0.00 | 80 | 1012.6 |
| 20260905223106 | 27 | 153 | 1.6 | 4.8 | 0.00 | 0.00 | 0.00 | 78 | 1012.7 |
| 20260905221600 | 28 | 0 | 0.0 | 3.2 | 0.00 | 0.00 | 0.00 | 78 | 1012.6 |
| 20260905220113 | 27 | 259 | 0.0 | 3.2 | 0.00 | 0.00 | 0.00 | 77 | 1012.7 |
| 20260905214555 | 27 | 174 | 1.6 | 6.4 | 0.00 | 0.00 | 0.00 | 77 | 1012.7 |
| 20260905213100 | 27 | 213 | 6.4 | 11.3 | 0.00 | 0.00 | 0.00 | 76 | 1012.6 |
| 20260905211558 | 27 | 179 | 1.6 | 16.1 | 0.00 | 0.00 | 0.00 | 75 | 1012.9 |
| 20260905210105 | 28 | 246 | 4.8 | 14.5 | 0.00 | 0.00 | 0.00 | 74 | 1012.9 |
| 20260905204600 | 27 | 219 | 1.6 | 8.0 | 0.00 | 0.00 | 0.00 | 77 | 1012.8 |
| 20260905203108 | 27 | 329 | 3.2 | 9.7 | 0.00 | 0.00 | 0.00 | 79 | 1012.8 |
| 20260905201602 | 27 | 333 | 0.0 | 6.4 | 0.00 | 0.00 | 0.00 | 79 | 1012.8 |
| 20260905200107 | 27 | 227 | 1.6 | 16.1 | 0.00 | 0.00 | 0.00 | 79 | 1013.1 |
| 20260905194559 | 27 | 186 | 4.8 | 14.5 | 0.00 | 0.00 | 0.00 | 80 | 1013.4 |
| 20260905193059 | 26 | 160 | 1.6 | 17.7 | 0.00 | 0.00 | 0.00 | 82 | 1014.1 |
| 20260905191601 | 27 | 189 | 4.8 | 12.9 | 0.00 | 0.00 | 0.00 | 81 | 1014.6 |
| 20260905190057 | 27 | 199 | 4.8 | 14.5 | 0.00 | 0.00 | 0.00 | 79 | 1014.9 |
| 20260905184601 | 28 | 198 | 4.8 | 14.5 | 0.00 | 0.00 | 0.00 | 78 | 1014.4 |
| 20260905183103 | 28 | 155 | 3.2 | 9.7 | 0.00 | 0.00 | 0.00 | 77 | 1014.0 |
| 20260905181600 | 28 | 169 | 1.6 | 8.0 | 0.00 | 0.00 | 0.00 | 79 | 1014.3 |
| 20260905180059 | 28 | 200 | 3.2 | 14.5 | 0.00 | 0.00 | 0.00 | 79 | 1014.5 |
| 20260905174553 | 27 | 146 | 3.2 | 12.9 | 0.00 | 0.00 | 0.00 | 85 | 1014.6 |
| 20260905173100 | 28 | 237 | 3.2 | 9.7 | 0.00 | 0.00 | 0.00 | 80 | 1014.8 |
| 20260905171634 | 30 | 167 | 1.6 | 6.4 | 0.00 | 0.00 | 0.00 | 73 | 1014.9 |
| 20260905170105 | 31 | 0 | 0.0 | 3.2 | 0.00 | 0.00 | 0.00 | 68 | 1015.1 |
| 20260905164602 | 32 | 0 | 0.0 | 1.6 | 0.00 | 0.00 | 0.00 | 68 | 1015.3 |
| 20260905163102 | 31 | 286 | 0.0 | 3.2 | 0.00 | 0.00 | 0.00 | 66 | 1015.4 |
| 20260905161559 | 32 | 188 | 0.0 | 8.0 | 0.00 | 0.00 | 0.00 | 63 | 1015.4 |
| 20260905160107 | 33 | 40 | 1.6 | 9.7 | 0.00 | 0.00 | 0.00 | 59 | 1015.5 |
| 20260905154615 | 32 | 0 | 1.6 | 6.4 | 0.00 | 0.00 | 0.00 | 63 | 1015.5 |
| 20260905153104 | 32 | 323 | 3.2 | 11.3 | 0.00 | 0.00 | 0.00 | 66 | 1015.7 |
| 20260905151552 | 31 | 324 | 3.2 | 11.3 | 0.00 | 0.00 | 0.00 | 67 | 1015.8 |
| 20260905150108 | 31 | 312 | 3.2 | 9.7 | 0.00 | 0.00 | 0.00 | 67 | 1015.7 |
| 20260905144606 | 30 | 323 | 3.2 | 9.7 | 0.00 | 0.00 | 0.00 | 71 | 1015.8 |
| 20260905143106 | 31 | 291 | 0.0 | 12.9 | 0.00 | 0.00 | 0.00 | 72 | 1015.9 |
| 20260905141558 | 30 | 333 | 4.8 | 12.9 | 0.00 | 0.00 | 0.00 | 75 | 1016.1 |
| 20260905140103 | 29 | 323 | 1.6 | 8.0 | 0.00 | 0.00 | 0.00 | 78 | 1016.0 |
| 20260905134603 | 28 | 314 | 4.8 | 12.9 | 0.00 | 0.00 | 0.00 | 80 | 1016.1 |
| 20260905133103 | 27 | 322 | 4.8 | 11.3 | 0.00 | 0.00 | 0.00 | 82 | 1016.1 |
| 20260905131602 | 27 | 320 | 4.8 | 12.9 | 0.00 | 0.00 | 0.00 | 84 | 1016.1 |
| 20260905130059 | 26 | 319 | 3.2 | 9.7 | 0.00 | 0.00 | 0.00 | 87 | 1016.2 |